createdAt,value
2023-01-07T08:35:43.061Z,18.30
2023-01-07T08:53:33.878Z,11.67
2023-01-07T09:08:33.743Z,23.87
2023-01-07T09:21:06.626Z,22.27
2023-01-07T09:26:00.255Z,29.43
2023-01-07T09:30:56.671Z,31.00
2023-01-07T09:35:50.649Z,24.97
2023-01-07T09:40:46.367Z,20.37
2023-01-07T09:45:44.030Z,14.50
2023-01-07T09:50:47.844Z,19.40
2023-01-07T09:56:11.155Z,15.80
2023-01-07T10:01:04.285Z,14.40
2023-01-07T10:06:05.800Z,14.53
2023-01-07T10:11:10.432Z,14.93
2023-01-07T10:16:11.566Z,11.73
2023-01-07T10:21:15.806Z,13.40
2023-01-07T10:26:19.987Z,14.70
2023-01-07T10:31:18.902Z,20.10
2023-01-07T10:36:26.495Z,20.50
2023-01-07T10:41:27.141Z,17.30
2023-01-07T10:46:35.150Z,17.43
2023-01-07T10:51:48.659Z,12.20
2023-01-07T10:56:47.768Z,11.30
2023-01-07T11:01:46.020Z,7.83
2023-01-07T11:06:44.743Z,8.17
2023-01-07T11:11:39.314Z,9.97
2023-01-07T11:16:39.549Z,7.50
2023-01-07T11:21:42.808Z,5.70
2023-01-07T11:26:38.128Z,5.40
2023-01-07T11:31:52.880Z,5.90
2023-01-07T11:36:46.435Z,5.87
2023-01-07T11:41:53.802Z,5.40
2023-01-07T11:46:47.534Z,5.07
2023-01-07T11:51:42.957Z,4.47
2023-01-07T11:56:37.092Z,4.73
2023-01-07T12:01:30.947Z,5.97
2023-01-07T12:06:28.827Z,4.63
2023-01-07T12:11:31.159Z,5.90
2023-01-07T12:16:29.584Z,6.47
2023-01-07T12:21:43.112Z,7.07
2023-01-07T12:26:47.323Z,6.63
2023-01-07T12:31:51.716Z,6.43
2023-01-07T12:36:51.290Z,4.87
2023-01-07T12:41:53.425Z,5.55
2023-01-07T12:46:56.312Z,3.53
2023-01-07T12:52:16.304Z,4.65
2023-01-07T12:57:17.178Z,6.50
2023-01-07T13:02:21.136Z,5.85
2023-01-07T13:07:18.065Z,5.72
2023-01-07T13:12:42.359Z,2.63
2023-01-07T13:17:38.874Z,4.95
2023-01-07T13:22:36.874Z,5.18
2023-01-07T13:27:44.051Z,5.35
2023-01-07T13:33:07.108Z,4.57
2023-01-07T13:38:12.366Z,8.23
2023-01-07T13:43:33.656Z,7.80
2023-01-07T13:48:28.732Z,5.40
2023-01-07T13:53:47.412Z,4.00
2023-01-07T13:58:47.877Z,6.70
2023-01-07T14:03:49.752Z,5.60
2023-01-07T14:08:44.586Z,5.27
2023-01-07T14:13:44.504Z,5.63
2023-01-07T14:19:17.318Z,6.20
2023-01-07T14:24:33.917Z,4.13
2023-01-07T14:29:42.027Z,6.23
2023-01-07T14:34:37.326Z,7.67
2023-01-07T14:39:36.981Z,10.73
2023-01-07T14:44:31.618Z,8.73
2023-01-07T14:50:08.089Z,9.13
2023-01-07T14:55:35.659Z,5.63
2023-01-07T15:01:14.760Z,6.47
2023-01-07T15:06:25.038Z,4.37
2023-01-07T15:11:44.681Z,4.17
2023-01-07T15:16:41.831Z,4.90
2023-01-07T15:21:45.567Z,3.37
2023-01-07T15:26:47.468Z,4.70
2023-01-07T15:31:53.951Z,3.73
2023-01-07T15:36:50.688Z,5.67
2023-01-07T15:41:45.324Z,5.33
2023-01-07T15:46:45.510Z,8.63
2023-01-07T15:51:40.689Z,18.37
2023-01-07T15:56:36.497Z,8.10
2023-01-07T16:01:30.872Z,13.23
2023-01-07T16:06:36.059Z,8.50
2023-01-07T16:11:31.831Z,9.17
2023-01-07T16:16:25.878Z,9.77
2023-01-07T16:21:19.792Z,13.60
2023-01-07T16:26:17.934Z,11.70
2023-01-07T16:31:14.327Z,9.80
2023-01-07T16:36:12.842Z,6.83
2023-01-07T16:41:11.084Z,8.20
2023-01-07T16:46:27.641Z,36.20
2023-01-07T16:51:39.339Z,51.23
2023-01-07T16:56:32.945Z,25.97
2023-01-07T17:01:35.414Z,19.13
2023-01-07T17:06:32.198Z,14.27
2023-01-07T17:16:34.657Z,13.17
